Oakton, Kentucky
Current Conditions -  °F | °C
As of 2:55 PM on Friday 31 Oct 2014 (Local Time) from KUCY Reporting Station
Scattered Clouds Scattered Clouds  
Wind Chill: 42°   Ceiling: Unl
Heat Index: 48°   Visibility: 10mi
Dew Point: 27°   Wind: 16mph
Humidity: 43%   Direction: 330°NNW
Pressure: 30.15"   Gusts: 31mph
Location:  36.6807°N, 88.9572°W
Report Text: KUCY 311955Z AUTO 33014G27KT 10SM SCT050 09/M03 A3015 RMK
Loading
Personal Weather Stations






























Interactive Weather Map
Tropical Storm Tracking
New forecast layout! Learn more

10-Day Weather Forecast

Advertisements
Track Severe Weather on mobile